Aérodrome :
LOGIN :

S'inscrire | Disclaimer

   EN    FR    IT 

 










Légende :    VFR   VFR Marginal   IFR   IFR Intensif   IFR Très Intensif
Visi : 
Plafond : 
>= 8 km
>= 3000ft
5 à 8 km
1000 à 3000 ft
1500m à 5 km
500 à 1000 ft
800 à 1500m
200 à 500 ft
< 800m
< 200 ft
Symboles :   Orages  Brouillard  Fortes neiges  Fortes précipitations  Vent > 20 kt
SIGMETs :   Divers  Orages  Givrage  Turbulence  Onde Orograph.  Cendres Volcan.






- Altitude de l'aérodrome : 162 ft
- Code IATA : BOD


LFBD - Bordeaux / Merignac

DERNIER METAR :
  • 281300Z AUTO 24012KT 220V280 9999 BKN021 BKN028 BKN038 14/10 Q1018 NOSIG

METARs EXPIRÉS :
  • 281230Z AUTO 25013KT 9999 BKN019 BKN025 OVC038 14/10 Q1019 NOSIG
  • 281200Z AUTO 24012KT 9999 BKN016 BKN029 OVC041 14/11 Q1019 NOSIG
  • 281130Z AUTO 24012KT 9999 BKN016 BKN028 BKN040 14/11 Q1019 NOSIG
  • 281100Z AUTO 24012KT 9999 BKN014 BKN024 BKN035 14/12 Q1019 BECMG BKN016
  • 281030Z AUTO 23009KT 9999 BKN009 BKN014 BKN019 13/12 Q1019 BECMG BKN016

TAF TAF LFBD
Valide du 28 à 12h jusqu'au 29 à 18h UTC


281100Z 2812/2918 24008KT 9999 BKN015 BKN040 TX16/2815Z TN10/2900Z
BECMG 2812/2814 BKN030
BECMG 2900/2902 15010KT
BECMG 2906/2909 25015G30KT -RA
TEMPO 2910/2918 4000 SHRA BKN025TCU
BECMG 2912/2915 27015G25KT
BECMG 2916/2918 24010KT
ATIS : +33 5 57 92 81 04



MET'MAP, la Météo Aéronautique d'un coup d'oeil ! - Copyright ORBIFLY Décembre 2007 - Disclaimer

ORBIFLY MET'MAP TEAM :

Programmation & Développement : Alexandra Zaïnal
Sur une idée originale de : Baudouin d'Aumeries
Assistance à la programmation : Marc-Olivier Méhu
Soutien technique & logistique : Manuel Goepfert

Contact : metmap@orbifly.com




SOURCES & CREDITS :

   NOAA